sensor_id;sensor_type;location;lat;lon;timestamp;P1;durP1;ratioP1;P2;durP2;ratioP2
70132;SDS011;57495;49.922;7.966;2022-10-15T00:00:51;3.87;;;1.73;;
70132;SDS011;57495;49.922;7.966;2022-10-15T00:02:52;4.65;;;2.20;;
70132;SDS011;57495;49.922;7.966;2022-10-15T00:04:54;4.95;;;2.10;;
70132;SDS011;57495;49.922;7.966;2022-10-15T00:06:56;4.20;;;1.90;;
70132;SDS011;57495;49.922;7.966;2022-10-15T00:08:57;4.32;;;2.20;;
70132;SDS011;57495;49.922;7.966;2022-10-15T00:11:03;5.37;;;3.50;;
70132;SDS011;57495;49.922;7.966;2022-10-15T00:13:06;5.00;;;3.00;;
70132;SDS011;57495;49.922;7.966;2022-10-15T00:15:09;4.82;;;2.22;;
70132;SDS011;57495;49.922;7.966;2022-10-15T00:17:11;5.57;;;2.70;;
70132;SDS011;57495;49.922;7.966;2022-10-15T00:19:12;5.20;;;3.03;;
70132;SDS011;57495;49.922;7.966;2022-10-15T00:21:14;6.47;;;3.30;;
70132;SDS011;57495;49.922;7.966;2022-10-15T00:23:17;6.03;;;3.10;;
70132;SDS011;57495;49.922;7.966;2022-10-15T00:25:18;5.65;;;3.20;;
70132;SDS011;57495;49.922;7.966;2022-10-15T00:27:20;5.95;;;3.33;;
70132;SDS011;57495;49.922;7.966;2022-10-15T00:29:22;7.10;;;3.60;;
70132;SDS011;57495;49.922;7.966;2022-10-15T00:31:26;5.43;;;3.03;;
70132;SDS011;57495;49.922;7.966;2022-10-15T00:33:28;6.53;;;2.90;;
70132;SDS011;57495;49.922;7.966;2022-10-15T00:35:30;7.10;;;2.90;;
70132;SDS011;57495;49.922;7.966;2022-10-15T00:37:31;5.43;;;2.42;;
70132;SDS011;57495;49.922;7.966;2022-10-15T00:39:33;5.72;;;2.78;;
70132;SDS011;57495;49.922;7.966;2022-10-15T00:41:35;6.07;;;2.73;;
70132;SDS011;57495;49.922;7.966;2022-10-15T00:43:41;6.00;;;2.28;;
70132;SDS011;57495;49.922;7.966;2022-10-15T00:45:44;5.13;;;2.10;;
70132;SDS011;57495;49.922;7.966;2022-10-15T00:47:47;4.68;;;2.22;;
70132;SDS011;57495;49.922;7.966;2022-10-15T00:49:50;4.43;;;2.08;;
70132;SDS011;57495;49.922;7.966;2022-10-15T00:51:59;4.97;;;2.30;;
70132;SDS011;57495;49.922;7.966;2022-10-15T00:54:03;4.97;;;2.15;;
70132;SDS011;57495;49.922;7.966;2022-10-15T00:56:05;4.65;;;2.33;;
70132;SDS011;57495;49.922;7.966;2022-10-15T00:58:08;4.82;;;2.50;;
70132;SDS011;57495;49.922;7.966;2022-10-15T01:00:12;6.35;;;2.33;;
70132;SDS011;57495;49.922;7.966;2022-10-15T01:02:15;6.20;;;2.60;;
70132;SDS011;57495;49.922;7.966;2022-10-15T01:04:19;6.13;;;2.55;;
70132;SDS011;57495;49.922;7.966;2022-10-15T01:06:21;5.18;;;2.55;;
70132;SDS011;57495;49.922;7.966;2022-10-15T01:08:23;4.30;;;2.15;;
70132;SDS011;57495;49.922;7.966;2022-10-15T01:10:26;5.22;;;2.28;;
70132;SDS011;57495;49.922;7.966;2022-10-15T01:12:38;5.17;;;2.53;;
70132;SDS011;57495;49.922;7.966;2022-10-15T01:14:59;4.95;;;2.28;;
70132;SDS011;57495;49.922;7.966;2022-10-15T01:17:10;6.00;;;2.53;;
70132;SDS011;57495;49.922;7.966;2022-10-15T01:21:53;4.70;;;2.00;;
70132;SDS011;57495;49.922;7.966;2022-10-15T01:29:20;6.00;;;2.38;;
70132;SDS011;57495;49.922;7.966;2022-10-15T01:31:41;5.68;;;2.85;;
70132;SDS011;57495;49.922;7.966;2022-10-15T01:33:46;5.15;;;2.80;;
70132;SDS011;57495;49.922;7.966;2022-10-15T01:35:53;6.23;;;2.97;;
70132;SDS011;57495;49.922;7.966;2022-10-15T01:38:02;7.47;;;3.47;;
70132;SDS011;57495;49.922;7.966;2022-10-15T01:40:10;7.85;;;4.22;;
70132;SDS011;57495;49.922;7.966;2022-10-15T01:42:16;8.88;;;3.35;;
70132;SDS011;57495;49.922;7.966;2022-10-15T01:44:22;7.80;;;3.30;;
70132;SDS011;57495;49.922;7.966;2022-10-15T01:46:28;7.93;;;3.70;;
70132;SDS011;57495;49.922;7.966;2022-10-15T01:48:36;5.78;;;2.80;;
70132;SDS011;57495;49.922;7.966;2022-10-15T01:50:41;7.65;;;2.90;;
70132;SDS011;57495;49.922;7.966;2022-10-15T01:52:46;7.68;;;3.10;;
70132;SDS011;57495;49.922;7.966;2022-10-15T01:54:50;6.15;;;3.10;;
70132;SDS011;57495;49.922;7.966;2022-10-15T01:56:54;5.53;;;2.87;;
70132;SDS011;57495;49.922;7.966;2022-10-15T01:58:58;6.38;;;2.88;;
70132;SDS011;57495;49.922;7.966;2022-10-15T02:01:00;4.93;;;2.70;;
70132;SDS011;57495;49.922;7.966;2022-10-15T02:03:02;6.15;;;2.80;;
70132;SDS011;57495;49.922;7.966;2022-10-15T02:05:06;5.25;;;2.45;;
70132;SDS011;57495;49.922;7.966;2022-10-15T02:07:27;6.47;;;2.97;;
70132;SDS011;57495;49.922;7.966;2022-10-15T02:09:41;5.90;;;3.00;;
70132;SDS011;57495;49.922;7.966;2022-10-15T02:11:55;5.85;;;3.00;;
70132;SDS011;57495;49.922;7.966;2022-10-15T02:14:07;5.47;;;2.25;;
70132;SDS011;57495;49.922;7.966;2022-10-15T02:16:16;6.15;;;2.30;;
70132;SDS011;57495;49.922;7.966;2022-10-15T02:18:25;5.57;;;2.33;;
70132;SDS011;57495;49.922;7.966;2022-10-15T02:20:34;5.75;;;2.33;;
70132;SDS011;57495;49.922;7.966;2022-10-15T02:22:42;6.20;;;2.65;;
70132;SDS011;57495;49.922;7.966;2022-10-15T02:24:50;6.13;;;2.28;;
70132;SDS011;57495;49.922;7.966;2022-10-15T02:26:56;5.50;;;2.53;;
70132;SDS011;57495;49.922;7.966;2022-10-15T02:28:59;6.07;;;2.37;;
70132;SDS011;57495;49.922;7.966;2022-10-15T02:31:03;5.45;;;2.40;;
70132;SDS011;57495;49.922;7.966;2022-10-15T02:33:06;6.00;;;2.80;;
70132;SDS011;57495;49.922;7.966;2022-10-15T02:35:09;5.30;;;2.40;;
70132;SDS011;57495;49.922;7.966;2022-10-15T02:37:13;6.60;;;3.10;;
70132;SDS011;57495;49.922;7.966;2022-10-15T02:39:17;7.13;;;3.87;;
70132;SDS011;57495;49.922;7.966;2022-10-15T02:41:23;10.30;;;4.18;;
70132;SDS011;57495;49.922;7.966;2022-10-15T02:43:24;22.08;;;4.47;;
70132;SDS011;57495;49.922;7.966;2022-10-15T02:45:26;38.03;;;5.55;;
70132;SDS011;57495;49.922;7.966;2022-10-15T02:47:27;97.47;;;5.50;;
70132;SDS011;57495;49.922;7.966;2022-10-15T02:49:30;67.70;;;5.73;;
70132;SDS011;57495;49.922;7.966;2022-10-15T02:51:32;29.65;;;5.63;;
70132;SDS011;57495;49.922;7.966;2022-10-15T02:53:35;96.32;;;5.85;;
70132;SDS011;57495;49.922;7.966;2022-10-15T02:55:37;173.20;;;7.07;;
70132;SDS011;57495;49.922;7.966;2022-10-15T02:57:38;111.05;;;6.65;;
70132;SDS011;57495;49.922;7.966;2022-10-15T02:59:43;103.43;;;6.60;;
70132;SDS011;57495;49.922;7.966;2022-10-15T03:01:44;70.20;;;6.32;;
70132;SDS011;57495;49.922;7.966;2022-10-15T03:03:46;54.85;;;5.38;;
70132;SDS011;57495;49.922;7.966;2022-10-15T03:05:48;110.38;;;6.25;;
70132;SDS011;57495;49.922;7.966;2022-10-15T03:07:49;83.80;;;5.85;;
70132;SDS011;57495;49.922;7.966;2022-10-15T03:09:52;56.80;;;6.07;;
70132;SDS011;57495;49.922;7.966;2022-10-15T03:11:54;45.38;;;5.50;;
70132;SDS011;57495;49.922;7.966;2022-10-15T03:13:55;56.25;;;5.35;;
70132;SDS011;57495;49.922;7.966;2022-10-15T03:15:57;63.75;;;4.63;;
70132;SDS011;57495;49.922;7.966;2022-10-15T03:17:58;50.67;;;5.28;;
70132;SDS011;57495;49.922;7.966;2022-10-15T03:20:00;93.87;;;5.60;;
70132;SDS011;57495;49.922;7.966;2022-10-15T03:22:01;66.75;;;5.45;;
70132;SDS011;57495;49.922;7.966;2022-10-15T03:24:02;72.22;;;3.65;;
70132;SDS011;57495;49.922;7.966;2022-10-15T03:26:05;48.58;;;3.53;;
70132;SDS011;57495;49.922;7.966;2022-10-15T03:28:07;114.35;;;6.72;;
70132;SDS011;57495;49.922;7.966;2022-10-15T03:30:09;63.47;;;3.33;;
70132;SDS011;57495;49.922;7.966;2022-10-15T03:32:11;137.80;;;5.78;;
70132;SDS011;57495;49.922;7.966;2022-10-15T03:34:12;128.60;;;5.40;;
70132;SDS011;57495;49.922;7.966;2022-10-15T03:36:13;50.50;;;4.63;;
70132;SDS011;57495;49.922;7.966;2022-10-15T03:38:15;109.60;;;6.20;;
70132;SDS011;57495;49.922;7.966;2022-10-15T03:40:16;62.90;;;5.13;;
70132;SDS011;57495;49.922;7.966;2022-10-15T03:42:19;73.80;;;5.55;;
70132;SDS011;57495;49.922;7.966;2022-10-15T03:44:21;117.97;;;6.45;;
70132;SDS011;57495;49.922;7.966;2022-10-15T03:46:22;47.53;;;4.65;;
70132;SDS011;57495;49.922;7.966;2022-10-15T03:48:23;57.45;;;4.70;;
70132;SDS011;57495;49.922;7.966;2022-10-15T03:50:25;75.13;;;5.83;;
70132;SDS011;57495;49.922;7.966;2022-10-15T03:52:26;63.38;;;4.68;;
70132;SDS011;57495;49.922;7.966;2022-10-15T03:54:28;73.32;;;5.40;;
70132;SDS011;57495;49.922;7.966;2022-10-15T03:56:29;72.00;;;6.13;;
70132;SDS011;57495;49.922;7.966;2022-10-15T03:58:32;50.92;;;5.32;;
70132;SDS011;57495;49.922;7.966;2022-10-15T04:00:34;35.17;;;5.30;;
70132;SDS011;57495;49.922;7.966;2022-10-15T04:02:35;49.20;;;5.78;;
70132;SDS011;57495;49.922;7.966;2022-10-15T04:04:36;27.05;;;4.97;;
70132;SDS011;57495;49.922;7.966;2022-10-15T04:06:38;39.30;;;5.10;;
70132;SDS011;57495;49.922;7.966;2022-10-15T04:08:39;123.97;;;7.43;;
70132;SDS011;57495;49.922;7.966;2022-10-15T04:10:41;23.70;;;5.37;;
70132;SDS011;57495;49.922;7.966;2022-10-15T04:12:43;99.05;;;7.13;;
70132;SDS011;57495;49.922;7.966;2022-10-15T04:14:45;24.67;;;5.20;;
70132;SDS011;57495;49.922;7.966;2022-10-15T04:16:47;23.20;;;5.07;;
70132;SDS011;57495;49.922;7.966;2022-10-15T04:18:48;15.15;;;5.45;;
70132;SDS011;57495;49.922;7.966;2022-10-15T04:20:50;15.40;;;5.33;;
70132;SDS011;57495;49.922;7.966;2022-10-15T04:22:51;13.98;;;5.45;;
70132;SDS011;57495;49.922;7.966;2022-10-15T04:24:53;12.73;;;4.82;;
70132;SDS011;57495;49.922;7.966;2022-10-15T04:26:54;12.63;;;5.30;;
70132;SDS011;57495;49.922;7.966;2022-10-15T04:28:55;12.20;;;5.10;;
70132;SDS011;57495;49.922;7.966;2022-10-15T04:30:58;10.47;;;4.27;;
70132;SDS011;57495;49.922;7.966;2022-10-15T04:33:01;12.38;;;4.55;;
70132;SDS011;57495;49.922;7.966;2022-10-15T04:35:02;12.23;;;4.80;;
70132;SDS011;57495;49.922;7.966;2022-10-15T04:37:04;12.45;;;5.32;;
70132;SDS011;57495;49.922;7.966;2022-10-15T04:39:05;9.80;;;4.07;;
70132;SDS011;57495;49.922;7.966;2022-10-15T04:41:08;11.57;;;4.97;;
70132;SDS011;57495;49.922;7.966;2022-10-15T04:43:10;10.02;;;4.25;;
70132;SDS011;57495;49.922;7.966;2022-10-15T04:45:12;11.18;;;3.83;;
70132;SDS011;57495;49.922;7.966;2022-10-15T04:47:15;10.68;;;4.80;;
70132;SDS011;57495;49.922;7.966;2022-10-15T04:49:16;9.77;;;5.00;;
70132;SDS011;57495;49.922;7.966;2022-10-15T04:51:18;9.47;;;4.33;;
70132;SDS011;57495;49.922;7.966;2022-10-15T04:53:21;10.93;;;4.45;;
70132;SDS011;57495;49.922;7.966;2022-10-15T04:55:22;10.85;;;4.65;;
70132;SDS011;57495;49.922;7.966;2022-10-15T04:57:23;11.15;;;4.75;;
70132;SDS011;57495;49.922;7.966;2022-10-15T04:59:25;10.50;;;4.55;;
70132;SDS011;57495;49.922;7.966;2022-10-15T05:01:27;9.97;;;4.80;;
70132;SDS011;57495;49.922;7.966;2022-10-15T05:03:30;9.18;;;4.50;;
70132;SDS011;57495;49.922;7.966;2022-10-15T05:05:32;9.93;;;4.20;;
70132;SDS011;57495;49.922;7.966;2022-10-15T05:07:33;9.18;;;3.28;;
70132;SDS011;57495;49.922;7.966;2022-10-15T05:09:35;8.82;;;3.80;;
70132;SDS011;57495;49.922;7.966;2022-10-15T05:11:37;7.70;;;3.80;;
70132;SDS011;57495;49.922;7.966;2022-10-15T05:13:39;7.97;;;3.22;;
70132;SDS011;57495;49.922;7.966;2022-10-15T05:15:40;7.00;;;2.88;;
70132;SDS011;57495;49.922;7.966;2022-10-15T05:17:41;7.05;;;2.58;;
70132;SDS011;57495;49.922;7.966;2022-10-15T05:19:44;6.47;;;2.58;;
70132;SDS011;57495;49.922;7.966;2022-10-15T05:21:46;5.93;;;2.40;;
70132;SDS011;57495;49.922;7.966;2022-10-15T05:23:47;6.78;;;2.38;;
70132;SDS011;57495;49.922;7.966;2022-10-15T05:25:49;8.88;;;2.53;;
70132;SDS011;57495;49.922;7.966;2022-10-15T05:27:50;5.78;;;2.40;;
70132;SDS011;57495;49.922;7.966;2022-10-15T05:29:51;6.20;;;2.60;;
70132;SDS011;57495;49.922;7.966;2022-10-15T05:31:53;17.23;;;3.90;;
70132;SDS011;57495;49.922;7.966;2022-10-15T05:33:55;7.18;;;2.33;;
70132;SDS011;57495;49.922;7.966;2022-10-15T05:36:06;6.50;;;2.42;;
70132;SDS011;57495;49.922;7.966;2022-10-15T05:38:08;6.10;;;2.92;;
70132;SDS011;57495;49.922;7.966;2022-10-15T05:40:10;7.72;;;3.00;;
70132;SDS011;57495;49.922;7.966;2022-10-15T05:42:12;5.63;;;2.43;;
70132;SDS011;57495;49.922;7.966;2022-10-15T05:44:13;6.97;;;2.88;;
70132;SDS011;57495;49.922;7.966;2022-10-15T05:46:15;7.30;;;3.45;;
70132;SDS011;57495;49.922;7.966;2022-10-15T05:48:17;8.00;;;3.33;;
70132;SDS011;57495;49.922;7.966;2022-10-15T05:50:18;8.60;;;3.45;;
70132;SDS011;57495;49.922;7.966;2022-10-15T05:52:21;6.60;;;3.07;;
70132;SDS011;57495;49.922;7.966;2022-10-15T05:54:23;8.85;;;4.05;;
70132;SDS011;57495;49.922;7.966;2022-10-15T05:56:25;7.85;;;3.80;;
70132;SDS011;57495;49.922;7.966;2022-10-15T05:58:27;8.27;;;3.38;;
70132;SDS011;57495;49.922;7.966;2022-10-15T06:00:29;8.48;;;3.33;;
70132;SDS011;57495;49.922;7.966;2022-10-15T06:02:30;7.53;;;3.37;;
70132;SDS011;57495;49.922;7.966;2022-10-15T06:04:32;6.97;;;3.20;;
70132;SDS011;57495;49.922;7.966;2022-10-15T06:06:33;8.02;;;3.25;;
70132;SDS011;57495;49.922;7.966;2022-10-15T06:08:36;7.50;;;3.22;;
70132;SDS011;57495;49.922;7.966;2022-10-15T06:10:37;7.32;;;3.65;;
70132;SDS011;57495;49.922;7.966;2022-10-15T06:12:39;7.30;;;3.50;;
70132;SDS011;57495;49.922;7.966;2022-10-15T06:14:41;8.32;;;2.78;;
70132;SDS011;57495;49.922;7.966;2022-10-15T06:16:43;6.10;;;2.47;;
70132;SDS011;57495;49.922;7.966;2022-10-15T06:18:44;4.97;;;2.13;;
70132;SDS011;57495;49.922;7.966;2022-10-15T06:20:49;4.82;;;2.13;;
70132;SDS011;57495;49.922;7.966;2022-10-15T06:22:55;4.83;;;1.63;;
70132;SDS011;57495;49.922;7.966;2022-10-15T06:24:58;4.70;;;2.10;;
70132;SDS011;57495;49.922;7.966;2022-10-15T06:26:59;5.50;;;1.88;;
70132;SDS011;57495;49.922;7.966;2022-10-15T06:29:01;3.72;;;1.45;;
70132;SDS011;57495;49.922;7.966;2022-10-15T06:31:02;5.00;;;2.03;;
70132;SDS011;57495;49.922;7.966;2022-10-15T06:33:04;3.40;;;1.10;;
70132;SDS011;57495;49.922;7.966;2022-10-15T06:35:05;4.15;;;1.70;;
70132;SDS011;57495;49.922;7.966;2022-10-15T06:37:07;6.43;;;1.50;;
70132;SDS011;57495;49.922;7.966;2022-10-15T06:39:09;3.45;;;0.77;;
70132;SDS011;57495;49.922;7.966;2022-10-15T06:41:11;4.00;;;1.35;;
70132;SDS011;57495;49.922;7.966;2022-10-15T06:43:13;4.10;;;1.10;;
70132;SDS011;57495;49.922;7.966;2022-10-15T06:45:14;4.13;;;1.45;;
70132;SDS011;57495;49.922;7.966;2022-10-15T06:47:16;5.05;;;1.60;;
70132;SDS011;57495;49.922;7.966;2022-10-15T06:49:17;4.07;;;1.30;;
70132;SDS011;57495;49.922;7.966;2022-10-15T06:51:19;3.70;;;1.00;;
70132;SDS011;57495;49.922;7.966;2022-10-15T06:53:20;4.10;;;1.20;;
70132;SDS011;57495;49.922;7.966;2022-10-15T06:55:22;5.38;;;1.40;;
70132;SDS011;57495;49.922;7.966;2022-10-15T06:57:25;4.20;;;1.50;;
70132;SDS011;57495;49.922;7.966;2022-10-15T06:59:27;10.13;;;1.70;;
70132;SDS011;57495;49.922;7.966;2022-10-15T07:01:28;3.75;;;1.38;;
70132;SDS011;57495;49.922;7.966;2022-10-15T07:03:30;4.87;;;1.53;;
70132;SDS011;57495;49.922;7.966;2022-10-15T07:05:32;4.03;;;1.67;;
70132;SDS011;57495;49.922;7.966;2022-10-15T07:07:33;4.40;;;1.70;;
70132;SDS011;57495;49.922;7.966;2022-10-15T07:09:35;4.85;;;1.70;;
70132;SDS011;57495;49.922;7.966;2022-10-15T07:11:36;5.97;;;1.90;;
70132;SDS011;57495;49.922;7.966;2022-10-15T07:13:39;5.40;;;1.70;;
70132;SDS011;57495;49.922;7.966;2022-10-15T07:15:41;5.10;;;1.92;;
70132;SDS011;57495;49.922;7.966;2022-10-15T07:17:46;4.85;;;1.83;;
70132;SDS011;57495;49.922;7.966;2022-10-15T07:19:48;5.35;;;2.25;;
70132;SDS011;57495;49.922;7.966;2022-10-15T07:21:50;5.47;;;2.05;;
70132;SDS011;57495;49.922;7.966;2022-10-15T07:23:51;6.20;;;2.30;;
70132;SDS011;57495;49.922;7.966;2022-10-15T07:25:53;5.75;;;2.20;;
70132;SDS011;57495;49.922;7.966;2022-10-15T07:27:55;6.32;;;1.83;;
70132;SDS011;57495;49.922;7.966;2022-10-15T07:29:58;6.15;;;1.40;;
70132;SDS011;57495;49.922;7.966;2022-10-15T07:31:59;4.22;;;1.33;;
70132;SDS011;57495;49.922;7.966;2022-10-15T07:34:01;3.97;;;1.47;;
70132;SDS011;57495;49.922;7.966;2022-10-15T07:36:03;4.15;;;1.60;;
70132;SDS011;57495;49.922;7.966;2022-10-15T07:38:05;4.05;;;1.35;;
70132;SDS011;57495;49.922;7.966;2022-10-15T07:40:07;3.70;;;1.38;;
70132;SDS011;57495;49.922;7.966;2022-10-15T07:42:09;5.68;;;1.40;;
70132;SDS011;57495;49.922;7.966;2022-10-15T07:44:10;3.17;;;1.00;;
70132;SDS011;57495;49.922;7.966;2022-10-15T07:46:13;2.63;;;0.70;;
70132;SDS011;57495;49.922;7.966;2022-10-15T07:48:14;4.32;;;0.70;;
70132;SDS011;57495;49.922;7.966;2022-10-15T07:50:16;4.85;;;0.80;;
70132;SDS011;57495;49.922;7.966;2022-10-15T07:52:18;2.25;;;0.65;;
70132;SDS011;57495;49.922;7.966;2022-10-15T07:54:19;3.20;;;0.87;;
70132;SDS011;57495;49.922;7.966;2022-10-15T07:56:21;2.92;;;0.82;;
70132;SDS011;57495;49.922;7.966;2022-10-15T07:58:22;4.65;;;0.80;;
70132;SDS011;57495;49.922;7.966;2022-10-15T08:00:23;2.75;;;0.73;;
70132;SDS011;57495;49.922;7.966;2022-10-15T08:02:27;2.63;;;0.77;;
70132;SDS011;57495;49.922;7.966;2022-10-15T08:04:28;12.47;;;2.10;;
70132;SDS011;57495;49.922;7.966;2022-10-15T08:06:30;2.35;;;0.60;;
70132;SDS011;57495;49.922;7.966;2022-10-15T08:08:32;2.83;;;0.70;;
70132;SDS011;57495;49.922;7.966;2022-10-15T08:10:34;2.55;;;0.70;;
70132;SDS011;57495;49.922;7.966;2022-10-15T08:12:36;2.50;;;0.70;;
70132;SDS011;57495;49.922;7.966;2022-10-15T08:14:37;2.10;;;0.40;;
70132;SDS011;57495;49.922;7.966;2022-10-15T08:16:39;2.22;;;0.52;;
70132;SDS011;57495;49.922;7.966;2022-10-15T08:18:42;1.92;;;0.55;;
70132;SDS011;57495;49.922;7.966;2022-10-15T08:20:44;3.20;;;0.50;;
70132;SDS011;57495;49.922;7.966;2022-10-15T08:22:45;2.63;;;0.40;;
70132;SDS011;57495;49.922;7.966;2022-10-15T08:24:46;2.87;;;0.50;;
70132;SDS011;57495;49.922;7.966;2022-10-15T08:26:48;2.42;;;0.30;;
70132;SDS011;57495;49.922;7.966;2022-10-15T08:28:49;3.60;;;0.50;;
70132;SDS011;57495;49.922;7.966;2022-10-15T08:30:51;4.82;;;0.70;;
70132;SDS011;57495;49.922;7.966;2022-10-15T08:32:52;3.38;;;0.68;;
70132;SDS011;57495;49.922;7.966;2022-10-15T08:34:55;3.50;;;1.03;;
70132;SDS011;57495;49.922;7.966;2022-10-15T08:36:56;33.80;;;19.65;;
70132;SDS011;57495;49.922;7.966;2022-10-15T08:38:58;2.72;;;0.73;;
70132;SDS011;57495;49.922;7.966;2022-10-15T08:41:00;4.22;;;0.90;;
70132;SDS011;57495;49.922;7.966;2022-10-15T08:43:02;2.58;;;0.63;;
70132;SDS011;57495;49.922;7.966;2022-10-15T08:45:05;2.50;;;0.80;;
70132;SDS011;57495;49.922;7.966;2022-10-15T08:47:16;4.35;;;0.60;;
70132;SDS011;57495;49.922;7.966;2022-10-15T08:49:29;2.88;;;0.52;;
70132;SDS011;57495;49.922;7.966;2022-10-15T08:51:38;3.90;;;0.65;;
70132;SDS011;57495;49.922;7.966;2022-10-15T08:53:46;2.13;;;0.50;;
70132;SDS011;57495;49.922;7.966;2022-10-15T08:55:50;2.50;;;0.80;;
70132;SDS011;57495;49.922;7.966;2022-10-15T08:57:57;2.13;;;0.70;;
70132;SDS011;57495;49.922;7.966;2022-10-15T09:00:04;3.53;;;0.77;;
70132;SDS011;57495;49.922;7.966;2022-10-15T09:02:12;5.18;;;0.50;;
70132;SDS011;57495;49.922;7.966;2022-10-15T09:04:21;1.88;;;0.50;;
70132;SDS011;57495;49.922;7.966;2022-10-15T09:06:32;2.63;;;0.40;;
70132;SDS011;57495;49.922;7.966;2022-10-15T09:08:39;3.85;;;0.50;;
70132;SDS011;57495;49.922;7.966;2022-10-15T09:10:50;2.63;;;0.90;;
70132;SDS011;57495;49.922;7.966;2022-10-15T09:12:57;2.50;;;0.60;;
70132;SDS011;57495;49.922;7.966;2022-10-15T09:15:03;2.38;;;0.60;;
70132;SDS011;57495;49.922;7.966;2022-10-15T09:17:13;2.97;;;0.93;;
70132;SDS011;57495;49.922;7.966;2022-10-15T09:19:20;4.30;;;0.90;;
70132;SDS011;57495;49.922;7.966;2022-10-15T09:21:23;3.83;;;1.40;;
70132;SDS011;57495;49.922;7.966;2022-10-15T09:23:26;3.20;;;1.10;;
70132;SDS011;57495;49.922;7.966;2022-10-15T09:25:31;3.25;;;0.80;;
70132;SDS011;57495;49.922;7.966;2022-10-15T09:27:36;3.30;;;1.13;;
70132;SDS011;57495;49.922;7.966;2022-10-15T09:29:40;3.15;;;1.10;;
70132;SDS011;57495;49.922;7.966;2022-10-15T09:31:48;3.60;;;1.35;;
70132;SDS011;57495;49.922;7.966;2022-10-15T09:33:55;5.10;;;1.77;;
70132;SDS011;57495;49.922;7.966;2022-10-15T09:36:05;4.70;;;2.20;;
70132;SDS011;57495;49.922;7.966;2022-10-15T09:38:21;4.97;;;2.50;;
70132;SDS011;57495;49.922;7.966;2022-10-15T09:40:36;6.13;;;2.70;;
70132;SDS011;57495;49.922;7.966;2022-10-15T09:42:47;4.45;;;2.42;;
70132;SDS011;57495;49.922;7.966;2022-10-15T09:44:51;5.10;;;2.67;;
70132;SDS011;57495;49.922;7.966;2022-10-15T09:46:54;4.40;;;2.00;;
70132;SDS011;57495;49.922;7.966;2022-10-15T09:48:58;3.90;;;1.80;;
70132;SDS011;57495;49.922;7.966;2022-10-15T09:51:10;5.15;;;1.73;;
70132;SDS011;57495;49.922;7.966;2022-10-15T09:53:17;4.68;;;1.60;;
70132;SDS011;57495;49.922;7.966;2022-10-15T09:55:27;4.80;;;1.70;;
70132;SDS011;57495;49.922;7.966;2022-10-15T09:57:36;4.22;;;1.42;;
70132;SDS011;57495;49.922;7.966;2022-10-15T09:59:50;2.87;;;0.90;;
70132;SDS011;57495;49.922;7.966;2022-10-15T10:01:56;3.15;;;1.05;;
70132;SDS011;57495;49.922;7.966;2022-10-15T10:04:09;4.20;;;1.10;;
70132;SDS011;57495;49.922;7.966;2022-10-15T10:06:13;3.33;;;0.93;;
70132;SDS011;57495;49.922;7.966;2022-10-15T10:08:16;2.58;;;0.80;;
70132;SDS011;57495;49.922;7.966;2022-10-15T10:10:22;2.73;;;1.00;;
70132;SDS011;57495;49.922;7.966;2022-10-15T10:12:26;4.53;;;0.80;;
70132;SDS011;57495;49.922;7.966;2022-10-15T10:14:31;2.72;;;0.60;;
70132;SDS011;57495;49.922;7.966;2022-10-15T10:16:35;2.47;;;0.60;;
70132;SDS011;57495;49.922;7.966;2022-10-15T10:19:05;2.90;;;0.80;;
70132;SDS011;57495;49.922;7.966;2022-10-15T10:21:19;4.03;;;0.63;;
70132;SDS011;57495;49.922;7.966;2022-10-15T10:23:23;4.18;;;0.80;;
70132;SDS011;57495;49.922;7.966;2022-10-15T10:25:30;2.22;;;0.47;;
70132;SDS011;57495;49.922;7.966;2022-10-15T10:27:43;1.83;;;0.45;;
70132;SDS011;57495;49.922;7.966;2022-10-15T10:29:48;2.13;;;0.40;;
70132;SDS011;57495;49.922;7.966;2022-10-15T10:31:54;2.80;;;0.93;;
70132;SDS011;57495;49.922;7.966;2022-10-15T10:33:56;2.38;;;0.60;;
70132;SDS011;57495;49.922;7.966;2022-10-15T10:36:01;1.75;;;0.30;;
70132;SDS011;57495;49.922;7.966;2022-10-15T10:38:03;2.70;;;0.50;;
70132;SDS011;57495;49.922;7.966;2022-10-15T10:40:05;3.42;;;0.68;;
70132;SDS011;57495;49.922;7.966;2022-10-15T10:42:26;2.30;;;0.50;;
70132;SDS011;57495;49.922;7.966;2022-10-15T10:44:33;2.38;;;0.40;;
70132;SDS011;57495;49.922;7.966;2022-10-15T10:46:37;2.97;;;0.57;;
70132;SDS011;57495;49.922;7.966;2022-10-15T10:48:39;2.97;;;0.50;;
70132;SDS011;57495;49.922;7.966;2022-10-15T10:50:41;3.05;;;0.80;;
70132;SDS011;57495;49.922;7.966;2022-10-15T10:52:43;2.40;;;0.50;;
70132;SDS011;57495;49.922;7.966;2022-10-15T10:54:44;2.22;;;0.60;;
70132;SDS011;57495;49.922;7.966;2022-10-15T10:56:47;2.45;;;0.65;;
70132;SDS011;57495;49.922;7.966;2022-10-15T10:58:51;3.47;;;0.57;;
70132;SDS011;57495;49.922;7.966;2022-10-15T11:00:57;4.85;;;0.70;;
70132;SDS011;57495;49.922;7.966;2022-10-15T11:03:00;2.30;;;0.30;;
70132;SDS011;57495;49.922;7.966;2022-10-15T11:05:02;2.20;;;0.60;;
70132;SDS011;57495;49.922;7.966;2022-10-15T11:07:04;5.20;;;1.00;;
70132;SDS011;57495;49.922;7.966;2022-10-15T11:09:13;2.53;;;0.40;;
70132;SDS011;57495;49.922;7.966;2022-10-15T11:11:21;2.10;;;0.40;;
70132;SDS011;57495;49.922;7.966;2022-10-15T11:13:33;4.53;;;0.37;;
70132;SDS011;57495;49.922;7.966;2022-10-15T11:15:47;2.72;;;0.60;;
70132;SDS011;57495;49.922;7.966;2022-10-15T11:17:56;2.78;;;0.60;;
70132;SDS011;57495;49.922;7.966;2022-10-15T11:20:08;4.50;;;0.63;;
70132;SDS011;57495;49.922;7.966;2022-10-15T11:22:22;3.88;;;0.50;;
70132;SDS011;57495;49.922;7.966;2022-10-15T11:24:40;3.30;;;0.50;;
70132;SDS011;57495;49.922;7.966;2022-10-15T11:26:51;2.65;;;0.40;;
70132;SDS011;57495;49.922;7.966;2022-10-15T11:29:02;4.88;;;0.40;;
70132;SDS011;57495;49.922;7.966;2022-10-15T11:31:13;3.28;;;0.32;;
70132;SDS011;57495;49.922;7.966;2022-10-15T11:33:24;2.90;;;0.50;;
70132;SDS011;57495;49.922;7.966;2022-10-15T11:35:42;2.63;;;0.50;;
70132;SDS011;57495;49.922;7.966;2022-10-15T11:37:52;3.40;;;0.50;;
70132;SDS011;57495;49.922;7.966;2022-10-15T11:40:05;1.80;;;0.40;;
70132;SDS011;57495;49.922;7.966;2022-10-15T11:42:16;2.53;;;0.30;;
70132;SDS011;57495;49.922;7.966;2022-10-15T11:44:29;1.77;;;0.30;;
70132;SDS011;57495;49.922;7.966;2022-10-15T11:46:39;1.87;;;0.30;;
70132;SDS011;57495;49.922;7.966;2022-10-15T11:48:54;2.97;;;0.77;;
70132;SDS011;57495;49.922;7.966;2022-10-15T11:51:06;1.25;;;0.30;;
70132;SDS011;57495;49.922;7.966;2022-10-15T11:53:29;2.40;;;0.40;;
70132;SDS011;57495;49.922;7.966;2022-10-15T11:55:42;3.70;;;0.50;;
70132;SDS011;57495;49.922;7.966;2022-10-15T11:57:48;2.27;;;0.30;;
70132;SDS011;57495;49.922;7.966;2022-10-15T11:59:53;1.98;;;0.20;;
70132;SDS011;57495;49.922;7.966;2022-10-15T12:02:01;1.58;;;0.20;;
70132;SDS011;57495;49.922;7.966;2022-10-15T12:04:11;1.50;;;0.30;;
70132;SDS011;57495;49.922;7.966;2022-10-15T12:06:18;3.13;;;0.40;;
70132;SDS011;57495;49.922;7.966;2022-10-15T12:08:22;1.93;;;0.20;;
70132;SDS011;57495;49.922;7.966;2022-10-15T12:10:29;1.83;;;0.20;;
70132;SDS011;57495;49.922;7.966;2022-10-15T12:12:39;3.67;;;0.28;;
70132;SDS011;57495;49.922;7.966;2022-10-15T12:14:48;2.55;;;0.35;;
70132;SDS011;57495;49.922;7.966;2022-10-15T12:17:00;1.65;;;0.10;;
70132;SDS011;57495;49.922;7.966;2022-10-15T12:19:13;4.90;;;0.30;;
70132;SDS011;57495;49.922;7.966;2022-10-15T12:21:29;1.10;;;0.13;;
70132;SDS011;57495;49.922;7.966;2022-10-15T12:23:40;2.13;;;0.30;;
70132;SDS011;57495;49.922;7.966;2022-10-15T12:25:43;2.67;;;0.30;;
70132;SDS011;57495;49.922;7.966;2022-10-15T12:27:46;1.77;;;0.40;;
70132;SDS011;57495;49.922;7.966;2022-10-15T12:30:10;1.30;;;0.23;;
70132;SDS011;57495;49.922;7.966;2022-10-15T12:32:20;1.50;;;0.20;;
70132;SDS011;57495;49.922;7.966;2022-10-15T12:34:29;1.85;;;0.45;;
70132;SDS011;57495;49.922;7.966;2022-10-15T12:36:37;1.42;;;0.20;;